createdAt,value
2018-09-11T00:02:12.585Z,76.77
2018-09-11T00:07:07.461Z,78.29
2018-09-11T00:12:02.368Z,76.15
2018-09-11T00:16:57.311Z,76.03
2018-09-11T00:21:52.222Z,75.98
2018-09-11T00:26:47.118Z,77.27
2018-09-11T00:31:42.166Z,76.74
2018-09-11T00:36:37.121Z,77.51
2018-09-11T00:41:31.989Z,79.47
2018-09-11T00:46:26.861Z,78.83
2018-09-11T00:51:21.736Z,78.51
2018-09-11T00:56:16.585Z,77.26
2018-09-11T01:01:11.558Z,76.79
2018-09-11T01:06:06.490Z,76.08
2018-09-11T01:11:01.358Z,76.31
2018-09-11T01:15:56.242Z,77.62
2018-09-11T01:20:51.197Z,76.73
2018-09-11T01:25:46.087Z,79.40
2018-09-11T01:30:41.046Z,79.22
2018-09-11T01:35:35.925Z,77.52
2018-09-11T01:40:30.836Z,79.64
2018-09-11T01:45:25.811Z,79.35
2018-09-11T01:50:20.687Z,80.62
2018-09-11T01:55:15.577Z,78.76
2018-09-11T02:00:20.273Z,78.32
2018-09-11T02:05:15.159Z,77.85
2018-09-11T02:10:09.976Z,78.17
2018-09-11T02:15:04.893Z,79.73
2018-09-11T02:19:59.711Z,79.13
2018-09-11T02:24:54.486Z,78.93
2018-09-11T02:29:49.251Z,78.05
2018-09-11T02:34:43.990Z,79.32
2018-09-11T02:39:38.879Z,81.12
2018-09-11T02:44:33.766Z,81.21
2018-09-11T02:49:28.618Z,81.07
2018-09-11T02:54:23.471Z,80.18
2018-09-11T02:59:18.397Z,80.64
2018-09-11T03:04:13.249Z,78.79
2018-09-11T03:09:08.265Z,79.00
2018-09-11T03:14:03.129Z,79.36
2018-09-11T03:18:58.003Z,78.69
2018-09-11T03:23:52.938Z,79.55
2018-09-11T03:28:47.934Z,80.13
2018-09-11T03:33:42.781Z,79.38
2018-09-11T03:38:37.673Z,79.22
2018-09-11T03:43:32.593Z,79.81
2018-09-11T03:48:27.437Z,80.40
2018-09-11T03:53:22.296Z,80.30
2018-09-11T03:58:18.241Z,80.00
2018-09-11T04:03:13.165Z,80.93
2018-09-11T04:08:08.030Z,80.52
2018-09-11T04:13:02.874Z,80.53
2018-09-11T04:17:57.801Z,80.95
2018-09-11T04:22:52.715Z,81.09
2018-09-11T04:27:47.579Z,81.08
2018-09-11T04:32:43.395Z,82.10
2018-09-11T04:37:38.241Z,80.96
2018-09-11T04:42:33.147Z,81.34
2018-09-11T04:47:28.179Z,80.16
2018-09-11T04:52:23.082Z,81.05
2018-09-11T04:57:17.989Z,80.94
2018-09-11T05:02:12.864Z,81.88
2018-09-11T05:07:08.079Z,81.89
2018-09-11T05:12:03.025Z,80.99
2018-09-11T05:16:57.858Z,82.04
2018-09-11T05:21:52.897Z,81.42
2018-09-11T05:26:47.790Z,81.75
2018-09-11T05:31:42.666Z,81.38
2018-09-11T05:36:37.570Z,80.83
2018-09-11T05:41:32.462Z,83.29
2018-09-11T05:46:27.294Z,83.32
2018-09-11T05:51:22.221Z,81.83
2018-09-11T05:56:17.057Z,83.07
2018-09-11T06:01:11.929Z,83.96
2018-09-11T06:06:06.834Z,83.84
2018-09-11T06:11:01.689Z,82.86
2018-09-11T06:15:56.434Z,82.81
2018-09-11T06:20:51.241Z,82.40
2018-09-11T06:25:46.111Z,82.35
2018-09-11T06:30:40.942Z,81.55
2018-09-11T06:35:35.857Z,82.51
2018-09-11T06:40:30.813Z,82.58
2018-09-11T06:45:25.723Z,82.69
2018-09-11T06:50:20.638Z,82.56
2018-09-11T06:55:15.905Z,83.12
2018-09-11T07:00:10.840Z,83.30
2018-09-11T07:05:05.806Z,81.45
2018-09-11T07:10:00.673Z,83.76
2018-09-11T07:14:55.538Z,82.52
2018-09-11T07:19:50.549Z,81.75
2018-09-11T07:24:45.430Z,80.46
2018-09-11T07:29:40.387Z,79.75
2018-09-11T07:34:35.393Z,78.44
2018-09-11T07:39:30.278Z,78.32
2018-09-11T07:44:25.483Z,78.28
2018-09-11T07:49:20.310Z,76.45
2018-09-11T07:54:15.231Z,74.68
2018-09-11T07:59:10.162Z,72.37
2018-09-11T08:04:05.128Z,70.86
2018-09-11T08:09:00.066Z,68.89
2018-09-11T08:13:55.157Z,66.99
2018-09-11T08:18:50.020Z,64.44
2018-09-11T08:23:44.917Z,60.62
2018-09-11T08:28:39.850Z,63.94
2018-09-11T08:33:34.717Z,64.14
2018-09-11T08:38:29.481Z,66.21
2018-09-11T08:43:24.245Z,65.98
2018-09-11T08:48:19.073Z,66.63
2018-09-11T08:53:13.860Z,64.43
2018-09-11T08:58:08.671Z,65.14
2018-09-11T09:03:03.541Z,61.97
2018-09-11T09:07:58.396Z,61.36
2018-09-11T09:12:53.286Z,60.62
2018-09-11T09:17:48.185Z,57.04
2018-09-11T09:22:43.024Z,57.91
2018-09-11T09:27:37.973Z,59.57
2018-09-11T09:32:32.869Z,59.36
2018-09-11T09:37:27.885Z,60.43
2018-09-11T09:42:22.903Z,59.08
2018-09-11T09:47:17.834Z,58.14
2018-09-11T09:52:12.705Z,57.44
2018-09-11T09:57:07.625Z,56.33
2018-09-11T10:02:04.701Z,57.50
2018-09-11T10:06:59.732Z,57.22
2018-09-11T10:11:54.757Z,56.77
2018-09-11T10:16:49.619Z,57.17
2018-09-11T10:21:44.553Z,56.03
2018-09-11T10:26:39.436Z,55.99
2018-09-11T10:31:34.355Z,53.86
2018-09-11T10:36:29.300Z,53.76
2018-09-11T10:41:30.651Z,53.38
2018-09-11T10:46:25.427Z,53.13
2018-09-11T10:51:20.219Z,52.71
2018-09-11T10:56:15.087Z,52.57
2018-09-11T11:01:09.837Z,51.57
2018-09-11T11:06:04.672Z,52.79
2018-09-11T11:10:59.477Z,52.40
2018-09-11T11:15:54.249Z,52.46
2018-09-11T11:20:49.190Z,49.74
2018-09-11T11:25:44.057Z,49.72
2018-09-11T11:30:38.913Z,48.20
2018-09-11T11:35:33.768Z,49.81
2018-09-11T11:40:28.698Z,48.65
2018-09-11T11:45:23.732Z,50.40
2018-09-11T11:50:18.621Z,47.34
2018-09-11T11:55:13.620Z,49.88
2018-09-11T12:00:08.446Z,52.04
2018-09-11T12:05:03.327Z,52.33
2018-09-11T12:09:58.220Z,52.26
2018-09-11T12:14:52.986Z,52.40
2018-09-11T12:19:47.756Z,48.12
2018-09-11T12:24:42.519Z,44.51
2018-09-11T12:29:37.272Z,46.84
2018-09-11T12:34:32.025Z,45.79
2018-09-11T12:39:26.834Z,43.78
2018-09-11T12:44:21.740Z,42.73
2018-09-11T12:49:20.767Z,44.07
2018-09-11T12:54:15.562Z,41.29
2018-09-11T12:59:10.412Z,43.95
2018-09-11T13:04:05.346Z,40.36
2018-09-11T13:09:00.181Z,43.61
2018-09-11T13:13:54.967Z,42.33
2018-09-11T13:18:49.783Z,40.58
2018-09-11T13:23:47.425Z,40.93
2018-09-11T13:28:42.205Z,41.05
2018-09-11T13:33:37.037Z,40.58
2018-09-11T13:38:31.815Z,41.03
2018-09-11T13:43:26.690Z,41.87
2018-09-11T13:48:21.568Z,40.05
2018-09-11T13:53:16.418Z,39.05
2018-09-11T13:58:11.273Z,38.42
2018-09-11T14:03:06.242Z,37.97
2018-09-11T14:08:01.186Z,47.47
2018-09-11T14:12:56.080Z,49.33
2018-09-11T14:17:50.997Z,48.53
2018-09-11T14:22:45.831Z,47.84
2018-09-11T14:27:40.641Z,48.39
2018-09-11T14:32:35.478Z,48.01
2018-09-11T14:37:30.298Z,49.03
2018-09-11T14:42:25.086Z,45.66
2018-09-11T14:47:19.845Z,47.48
2018-09-11T14:52:14.661Z,49.45
2018-09-11T14:57:09.494Z,48.35
2018-09-11T15:02:04.289Z,48.51
2018-09-11T15:06:59.454Z,49.16
2018-09-11T15:11:54.343Z,49.14
2018-09-11T15:16:49.218Z,49.51
2018-09-11T15:21:44.122Z,50.73
2018-09-11T15:26:39.047Z,50.86
2018-09-11T15:31:33.921Z,49.86
2018-09-11T15:36:28.869Z,48.81
2018-09-11T15:41:23.732Z,49.39
2018-09-11T15:46:18.598Z,49.11
2018-09-11T15:51:13.466Z,50.08
2018-09-11T15:56:08.653Z,51.68
2018-09-11T16:01:03.614Z,51.32
2018-09-11T16:05:58.541Z,51.27
2018-09-11T16:10:53.450Z,51.45
2018-09-11T16:15:48.368Z,53.05
2018-09-11T16:20:43.228Z,53.24
2018-09-11T16:25:38.050Z,51.99
2018-09-11T16:30:32.900Z,52.71
2018-09-11T16:35:28.564Z,54.23
2018-09-11T16:40:23.371Z,54.49
2018-09-11T16:45:18.201Z,54.99
2018-09-11T16:50:13.024Z,55.57
2018-09-11T16:55:07.945Z,58.89
2018-09-11T17:00:02.801Z,57.89
2018-09-11T17:04:57.666Z,59.08
2018-09-11T17:09:52.453Z,58.82
2018-09-11T17:14:47.282Z,60.08
2018-09-11T17:19:42.520Z,62.51
2018-09-11T17:24:40.411Z,61.58
2018-09-11T17:29:35.322Z,63.50
2018-09-11T17:34:30.289Z,64.33
2018-09-11T17:39:25.196Z,66.74
2018-09-11T17:44:20.147Z,67.65
2018-09-11T17:49:15.137Z,67.35
2018-09-11T17:54:09.939Z,68.15
2018-09-11T17:59:05.371Z,69.46
2018-09-11T18:04:00.457Z,69.08
2018-09-11T18:08:55.673Z,69.26
2018-09-11T18:13:52.895Z,69.17
2018-09-11T18:18:47.860Z,68.81
2018-09-11T18:23:42.861Z,68.48
2018-09-11T18:28:37.747Z,67.82
2018-09-11T18:33:32.640Z,68.26
2018-09-11T18:38:27.543Z,68.49
2018-09-11T18:43:22.457Z,69.13
2018-09-11T18:48:17.408Z,69.08
2018-09-11T18:53:12.304Z,69.21
2018-09-11T18:58:07.339Z,69.37
2018-09-11T19:03:03.049Z,69.12
2018-09-11T19:07:58.386Z,68.36
2018-09-11T19:12:53.314Z,68.55
2018-09-11T19:17:48.121Z,67.73
2018-09-11T19:22:43.018Z,67.25
2018-09-11T19:27:37.894Z,66.29
2018-09-11T19:32:32.848Z,66.87
2018-09-11T19:37:27.729Z,66.69
2018-09-11T19:42:22.724Z,67.42
2018-09-11T19:47:17.594Z,67.00
2018-09-11T19:52:12.428Z,66.85
2018-09-11T19:57:07.380Z,66.88
2018-09-11T20:02:02.334Z,67.62
2018-09-11T20:06:57.281Z,66.93
2018-09-11T20:11:52.169Z,65.67
2018-09-11T20:16:47.188Z,65.30
2018-09-11T20:21:42.164Z,66.07
2018-09-11T20:26:37.102Z,66.78
2018-09-11T20:31:32.077Z,67.73
2018-09-11T20:36:27.017Z,67.60
2018-09-11T20:41:22.106Z,67.53
2018-09-11T20:46:17.100Z,67.91
2018-09-11T20:51:11.918Z,68.24
2018-09-11T20:56:06.791Z,67.32
2018-09-11T21:01:01.913Z,67.65
2018-09-11T21:05:56.812Z,67.31
2018-09-11T21:10:51.612Z,67.40
2018-09-11T21:15:46.437Z,68.17
2018-09-11T21:20:41.418Z,69.46
2018-09-11T21:25:36.199Z,67.86
2018-09-11T21:30:31.033Z,68.04
2018-09-11T21:35:25.839Z,68.29
2018-09-11T21:40:20.644Z,67.12
2018-09-11T21:45:15.414Z,68.99
2018-09-11T21:50:10.242Z,68.43
2018-09-11T21:55:05.101Z,66.89
2018-09-11T21:59:59.961Z,68.95
2018-09-11T22:04:54.762Z,68.92
2018-09-11T22:09:49.588Z,68.81
2018-09-11T22:14:44.447Z,69.67
2018-09-11T22:19:39.272Z,70.29
2018-09-11T22:24:34.090Z,68.79
2018-09-11T22:29:28.882Z,69.50
2018-09-11T22:34:23.676Z,71.54
2018-09-11T22:39:18.450Z,70.21
2018-09-11T22:44:13.235Z,69.91
2018-09-11T22:49:08.053Z,71.71
2018-09-11T22:54:02.852Z,70.31
2018-09-11T22:58:57.643Z,70.75
2018-09-11T23:03:52.468Z,69.77
2018-09-11T23:08:47.262Z,70.76
2018-09-11T23:13:42.153Z,71.15
2018-09-11T23:18:36.982Z,70.87
2018-09-11T23:23:31.773Z,71.34
2018-09-11T23:28:26.545Z,71.42
2018-09-11T23:33:21.337Z,71.81
2018-09-11T23:38:16.253Z,72.40
2018-09-11T23:43:11.207Z,73.60
2018-09-11T23:48:06.345Z,73.79
2018-09-11T23:53:01.275Z,73.33
2018-09-11T23:57:56.273Z,73.09
